DLH2MC DTTA-LOWL
Flight info
| Callsign | DLH2MC |
|---|---|
| Flight time | N/A |
| Altitude | 38000 |
| Route | ICANI2A ICANI UB979 SIRVI UG727 NIBEL DCT GERMO DCT BETOT DCT LUNAK DCT ETPOK DCT BAKEP DCT BADOP DCT VEKEN DCT NUBRA NUBRA2K |
| Aircraft | A20N/M-SDE2E3FGHIRWXY/LB1 |
Departure
| Time | 2026-05-08 20:09 |
|---|---|
| Airport | Tunis Carthage International Airport (DTTA) |
Arrival
| Time | N/A |
|---|---|
| Airport | Linz-Hörsching Airport (LOWL) |
| Time | Latitude | Longitude | Altitude | Speed | Heading |
|---|---|---|---|---|---|
| 2026-05-08 19:35 | 36.84561 | 10.22009 | 16 ft | 0 kts | 290° |
| 2026-05-08 19:59 | 36.84558 | 10.22016 | 24 ft | 1 kts | 290° |
| 2026-05-08 20:00 | 36.84556 | 10.22026 | 28 ft | 1 kts | 290° |
| 2026-05-08 20:00 | 36.84553 | 10.22035 | 28 ft | 1 kts | 284° |
| 2026-05-08 20:00 | 36.84551 | 10.22045 | 28 ft | 1 kts | 271° |
| 2026-05-08 20:00 | 36.84551 | 10.22056 | 28 ft | 1 kts | 257° |
| 2026-05-08 20:01 | 36.84553 | 10.22065 | 28 ft | 1 kts | 241° |
| 2026-05-08 20:01 | 36.84557 | 10.22074 | 28 ft | 1 kts | 225° |
| 2026-05-08 20:01 | 36.84562 | 10.22080 | 27 ft | 1 kts | 210° |
| 2026-05-08 20:01 | 36.84569 | 10.22085 | 30 ft | 0 kts | 195° |
| 2026-05-08 20:05 | 36.84547 | 10.22084 | 24 ft | 8 kts | 168° |
| 2026-05-08 20:05 | 36.84505 | 10.22150 | 27 ft | 9 kts | 105° |
| 2026-05-08 20:05 | 36.84489 | 10.22227 | 24 ft | 9 kts | 106° |
| 2026-05-08 20:06 | 36.84434 | 10.22243 | 23 ft | 10 kts | 192° |
| 2026-05-08 20:06 | 36.84354 | 10.22218 | 23 ft | 14 kts | 194° |
| 2026-05-08 20:06 | 36.84253 | 10.22188 | 23 ft | 16 kts | 192° |
| 2026-05-08 20:06 | 36.84131 | 10.22156 | 22 ft | 19 kts | 192° |
| 2026-05-08 20:07 | 36.83997 | 10.22120 | 22 ft | 12 kts | 190° |
| 2026-05-08 20:07 | 36.83914 | 10.22100 | 22 ft | 14 kts | 187° |
| 2026-05-08 20:07 | 36.83867 | 10.22184 | 22 ft | 15 kts | 79° |
| 2026-05-08 20:07 | 36.83911 | 10.22305 | 22 ft | 16 kts | 52° |
| 2026-05-08 20:08 | 36.83969 | 10.22391 | 22 ft | 6 kts | 37° |
| 2026-05-08 20:08 | 36.84000 | 10.22403 | 21 ft | 0 kts | 12° |
| 2026-05-08 20:08 | 36.84025 | 10.22410 | 21 ft | 15 kts | 12° |
| 2026-05-08 20:08 | 36.84364 | 10.22499 | 23 ft | 83 kts | 12° |
| 2026-05-08 20:09 | 36.85111 | 10.22700 | 29 ft | 134 kts | 12° |
| 2026-05-08 20:09 | 36.86157 | 10.22981 | 113 ft | 166 kts | 11° |
| 2026-05-08 20:09 | 36.87236 | 10.23358 | 760 ft | 157 kts | 21° |
| 2026-05-08 20:09 | 36.88187 | 10.24107 | 1257 ft | 167 kts | 41° |
| 2026-05-08 20:10 | 36.88944 | 10.25211 | 1915 ft | 170 kts | 53° |
| 2026-05-08 20:10 | 36.89681 | 10.26457 | 2311 ft | 187 kts | 51° |
| 2026-05-08 20:10 | 36.90592 | 10.27767 | 2746 ft | 209 kts | 45° |
| 2026-05-08 20:10 | 36.91280 | 10.28626 | 3029 ft | 222 kts | 43° |
| 2026-05-08 20:11 | 36.92501 | 10.30034 | 3490 ft | 249 kts | 40° |
| 2026-05-08 20:11 | 36.93851 | 10.31521 | 4075 ft | 267 kts | 39° |
| 2026-05-08 20:11 | 36.95280 | 10.33080 | 4924 ft | 275 kts | 38° |
| 2026-05-08 20:11 | 36.96729 | 10.34664 | 5715 ft | 284 kts | 37° |
| 2026-05-08 20:12 | 36.98236 | 10.36312 | 6529 ft | 292 kts | 36° |
| 2026-05-08 20:12 | 36.99783 | 10.38007 | 7346 ft | 297 kts | 36° |
| 2026-05-08 20:12 | 37.01342 | 10.39714 | 8187 ft | 302 kts | 36° |
| 2026-05-08 20:12 | 37.02928 | 10.41450 | 9028 ft | 306 kts | 36° |
| 2026-05-08 20:13 | 37.04550 | 10.43224 | 9850 ft | 311 kts | 36° |
| 2026-05-08 20:13 | 37.06200 | 10.45029 | 10526 ft | 322 kts | 36° |
| 2026-05-08 20:13 | 37.07982 | 10.46967 | 10793 ft | 347 kts | 36° |
| 2026-05-08 20:13 | 37.09850 | 10.49002 | 11154 ft | 365 kts | 36° |
| 2026-05-08 20:14 | 37.11779 | 10.51115 | 11878 ft | 371 kts | 37° |
| 2026-05-08 20:14 | 37.13724 | 10.53249 | 12620 ft | 376 kts | 37° |
| 2026-05-08 20:14 | 37.15467 | 10.55158 | 13253 ft | 381 kts | 36° |
| 2026-05-08 20:14 | 37.17489 | 10.57368 | 13960 ft | 387 kts | 37° |
| 2026-05-08 20:15 | 37.19523 | 10.59591 | 14607 ft | 391 kts | 36° |
| 2026-05-08 20:15 | 37.21480 | 10.61731 | 15216 ft | 395 kts | 36° |
| 2026-05-08 20:15 | 37.23564 | 10.64007 | 15860 ft | 400 kts | 36° |
| 2026-05-08 20:15 | 37.25652 | 10.66274 | 16477 ft | 404 kts | 36° |
| 2026-05-08 20:16 | 37.27850 | 10.68635 | 17104 ft | 409 kts | 36° |
| 2026-05-08 20:16 | 37.28535 | 10.69369 | 17294 ft | 410 kts | 35° |